createdAt,value
2022-12-24T00:02:21.545Z,5.50
2022-12-24T00:04:47.932Z,5.63
2022-12-24T00:07:14.379Z,5.30
2022-12-24T00:09:40.724Z,5.20
2022-12-24T00:12:07.318Z,5.50
2022-12-24T00:14:33.680Z,5.67
2022-12-24T00:17:00.087Z,6.33
2022-12-24T00:19:26.541Z,5.50
2022-12-24T00:21:52.859Z,6.27
2022-12-24T00:24:19.212Z,5.57
2022-12-24T00:26:45.562Z,6.03
2022-12-24T00:29:12.138Z,6.63
2022-12-24T00:31:38.460Z,7.03
2022-12-24T00:34:04.823Z,5.37
2022-12-24T00:36:31.248Z,5.03
2022-12-24T00:38:57.603Z,5.10
2022-12-24T00:41:28.890Z,5.47
2022-12-24T00:44:05.537Z,5.30
2022-12-24T00:46:33.459Z,6.03
2022-12-24T00:49:00.699Z,5.57
2022-12-24T00:51:27.649Z,6.60
2022-12-24T00:53:54.270Z,6.10
2022-12-24T00:56:20.967Z,5.53
2022-12-24T00:58:47.426Z,6.67
2022-12-24T01:01:14.262Z,7.80
2022-12-24T01:03:40.882Z,5.87
2022-12-24T01:06:13.530Z,5.43
2022-12-24T01:08:40.492Z,5.87
2022-12-24T01:11:09.039Z,6.70
2022-12-24T01:13:36.165Z,6.87
2022-12-24T01:16:03.802Z,6.60
2022-12-24T01:18:30.211Z,6.47
2022-12-24T01:20:58.255Z,8.10
2022-12-24T01:23:25.037Z,6.43
2022-12-24T01:25:51.482Z,5.57
2022-12-24T01:28:18.354Z,5.63
2022-12-24T01:30:44.772Z,5.10
2022-12-24T01:33:11.148Z,6.30
2022-12-24T01:35:42.687Z,4.83
2022-12-24T01:38:11.723Z,4.73
2022-12-24T01:41:00.480Z,5.60
2022-12-24T01:43:30.327Z,4.67
2022-12-24T01:46:01.264Z,4.87
2022-12-24T01:48:45.195Z,5.17
2022-12-24T01:51:35.675Z,5.20
2022-12-24T01:54:11.501Z,5.03
2022-12-24T01:56:45.196Z,5.30
2022-12-24T01:59:14.598Z,5.50
2022-12-24T02:01:41.161Z,6.57
2022-12-24T02:04:34.297Z,5.23
2022-12-24T02:07:00.967Z,6.77
2022-12-24T02:09:28.211Z,5.87
2022-12-24T02:11:54.644Z,6.27
2022-12-24T02:14:21.625Z,5.40
2022-12-24T02:17:02.572Z,5.50
2022-12-24T02:19:34.664Z,5.23
2022-12-24T02:22:08.061Z,5.67
2022-12-24T02:24:46.740Z,5.33
2022-12-24T02:27:28.064Z,5.93
2022-12-24T02:30:01.712Z,5.80
2022-12-24T02:32:31.073Z,5.67
2022-12-24T02:35:19.942Z,6.03
2022-12-24T02:37:55.092Z,6.93
2022-12-24T02:40:25.213Z,5.97
2022-12-24T02:42:58.293Z,6.03
2022-12-24T02:45:31.117Z,6.07
2022-12-24T02:47:58.797Z,5.20
2022-12-24T02:50:25.850Z,6.50
2022-12-24T02:52:52.747Z,6.17
2022-12-24T02:55:28.425Z,6.77
2022-12-24T02:58:09.973Z,5.63
2022-12-24T03:00:56.163Z,6.37
2022-12-24T03:03:49.674Z,6.80
2022-12-24T03:06:28.118Z,5.73
2022-12-24T03:09:01.887Z,5.97
2022-12-24T03:11:28.281Z,6.00
2022-12-24T03:13:57.549Z,7.60
2022-12-24T03:16:27.267Z,6.73
2022-12-24T03:18:55.988Z,6.90
2022-12-24T03:21:28.437Z,5.53
2022-12-24T03:23:56.026Z,6.47
2022-12-24T03:26:24.806Z,5.90
2022-12-24T03:28:51.170Z,6.10
2022-12-24T03:31:18.625Z,6.57
2022-12-24T03:33:45.415Z,5.50
2022-12-24T03:36:12.122Z,5.10
2022-12-24T03:38:38.491Z,5.53
2022-12-24T03:41:05.157Z,5.57
2022-12-24T03:43:31.674Z,4.87
2022-12-24T03:45:58.150Z,5.23
2022-12-24T03:48:29.126Z,5.40
2022-12-24T03:50:58.987Z,5.73
2022-12-24T03:53:25.351Z,4.73
2022-12-24T03:55:51.672Z,6.17
2022-12-24T03:58:18.023Z,5.13
2022-12-24T04:00:44.400Z,4.77
2022-12-24T04:03:10.848Z,5.03
2022-12-24T04:05:37.258Z,5.37
2022-12-24T04:08:03.626Z,5.47
2022-12-24T04:10:29.941Z,5.07
2022-12-24T04:12:56.282Z,5.57
2022-12-24T04:15:22.619Z,4.07
2022-12-24T04:17:48.953Z,4.97
2022-12-24T04:20:15.353Z,4.50
2022-12-24T04:22:42.155Z,4.40
2022-12-24T04:25:09.069Z,6.20
2022-12-24T04:27:35.488Z,5.70
2022-12-24T04:30:01.929Z,4.90
2022-12-24T04:32:28.553Z,5.50
2022-12-24T04:34:55.037Z,5.37
2022-12-24T04:37:21.409Z,5.20
2022-12-24T04:39:47.784Z,5.33
2022-12-24T04:42:14.279Z,4.90
2022-12-24T04:44:40.608Z,4.93
2022-12-24T04:47:06.963Z,4.10
2022-12-24T04:49:33.274Z,4.47
2022-12-24T04:51:59.618Z,4.53
2022-12-24T04:54:25.993Z,5.07
2022-12-24T04:56:52.696Z,5.10
2022-12-24T04:59:19.046Z,4.57
2022-12-24T05:01:45.610Z,4.43
2022-12-24T05:04:12.143Z,4.60
2022-12-24T05:06:38.508Z,5.90
2022-12-24T05:09:04.858Z,5.50
2022-12-24T05:11:31.498Z,4.90
2022-12-24T05:13:57.908Z,5.20
2022-12-24T05:16:24.708Z,4.90
2022-12-24T05:18:51.553Z,6.53
2022-12-24T05:21:21.619Z,6.07
2022-12-24T05:24:24.033Z,5.73
2022-12-24T05:26:56.045Z,5.87
2022-12-24T05:29:23.056Z,4.50
2022-12-24T05:31:49.625Z,5.70
2022-12-24T05:34:16.735Z,5.67
2022-12-24T05:36:44.099Z,5.10
2022-12-24T05:39:16.190Z,5.27
2022-12-24T05:41:43.229Z,4.70
2022-12-24T05:44:09.631Z,6.53
2022-12-24T05:46:36.025Z,5.63
2022-12-24T05:49:02.535Z,4.97
2022-12-24T05:51:28.895Z,4.97
2022-12-24T05:53:55.327Z,4.27
2022-12-24T05:56:23.687Z,3.63
2022-12-24T05:58:51.966Z,4.40
2022-12-24T06:01:19.766Z,4.00
2022-12-24T06:03:46.329Z,4.90
2022-12-24T06:06:15.668Z,4.77
2022-12-24T06:08:42.196Z,4.23
2022-12-24T06:11:11.854Z,4.53
2022-12-24T06:13:39.267Z,4.87
2022-12-24T06:16:07.254Z,5.47
2022-12-24T06:18:35.902Z,5.50
2022-12-24T06:21:02.949Z,6.10
2022-12-24T06:23:31.364Z,5.60
2022-12-24T06:26:00.712Z,5.87
2022-12-24T06:28:28.491Z,6.17
2022-12-24T06:31:02.133Z,6.00
2022-12-24T06:33:29.485Z,6.10
2022-12-24T06:35:55.847Z,5.33
2022-12-24T06:38:22.211Z,5.03
2022-12-24T06:40:48.751Z,7.00
2022-12-24T06:43:16.073Z,5.43
2022-12-24T06:45:47.084Z,6.57
2022-12-24T06:48:14.776Z,5.07
2022-12-24T06:50:42.334Z,6.07
2022-12-24T06:53:09.535Z,6.20
2022-12-24T06:55:36.003Z,5.10
2022-12-24T06:58:03.141Z,4.70
2022-12-24T07:00:29.524Z,4.70
2022-12-24T07:02:55.943Z,4.97
2022-12-24T07:05:22.389Z,5.10
2022-12-24T07:07:48.727Z,7.07
2022-12-24T07:10:17.031Z,5.57
2022-12-24T07:12:43.983Z,5.47
2022-12-24T07:15:11.213Z,6.03
2022-12-24T07:17:37.681Z,4.87
2022-12-24T07:20:05.627Z,5.83
2022-12-24T07:22:32.023Z,5.63
2022-12-24T07:24:58.340Z,5.10
2022-12-24T07:27:24.728Z,5.27
2022-12-24T07:29:51.063Z,4.73
2022-12-24T07:32:17.511Z,5.77
2022-12-24T07:34:43.909Z,5.47
2022-12-24T07:37:10.280Z,4.87
2022-12-24T07:39:36.615Z,5.30
2022-12-24T07:42:05.472Z,4.90
2022-12-24T07:44:31.832Z,5.80
2022-12-24T07:46:58.279Z,5.43
2022-12-24T07:49:24.799Z,5.90
2022-12-24T07:51:51.180Z,6.10
2022-12-24T07:54:17.532Z,6.30
2022-12-24T07:56:43.899Z,5.97
2022-12-24T07:59:14.033Z,6.03
2022-12-24T08:01:41.111Z,6.77
2022-12-24T08:04:07.662Z,5.67
2022-12-24T08:06:34.113Z,5.53
2022-12-24T08:09:00.521Z,6.23
2022-12-24T08:11:26.873Z,6.87
2022-12-24T08:13:53.226Z,5.77
2022-12-24T08:16:19.623Z,6.00
2022-12-24T08:18:45.997Z,6.50
2022-12-24T08:21:12.344Z,5.17
2022-12-24T08:23:38.873Z,5.83
2022-12-24T08:26:09.892Z,6.50
2022-12-24T08:28:36.752Z,6.47
2022-12-24T08:31:03.242Z,5.57
2022-12-24T08:33:29.772Z,6.40
2022-12-24T08:35:57.155Z,5.00
2022-12-24T08:38:24.174Z,6.73
2022-12-24T08:40:53.434Z,6.07
2022-12-24T08:43:19.991Z,5.97
2022-12-24T08:45:49.109Z,6.90
2022-12-24T08:48:15.624Z,5.93
2022-12-24T08:50:42.864Z,6.23
2022-12-24T08:53:10.632Z,6.43
2022-12-24T08:55:37.382Z,6.97
2022-12-24T08:58:04.017Z,5.87
2022-12-24T09:00:30.415Z,5.93
2022-12-24T09:02:57.575Z,5.17
2022-12-24T09:05:24.007Z,6.27
2022-12-24T09:07:50.379Z,6.77
2022-12-24T09:10:17.088Z,5.53
2022-12-24T09:12:43.456Z,5.87
2022-12-24T09:15:10.291Z,6.37
2022-12-24T09:17:37.054Z,5.90
2022-12-24T09:20:06.629Z,6.57
2022-12-24T09:22:37.879Z,6.03
2022-12-24T09:25:06.155Z,5.83
2022-12-24T09:27:32.572Z,5.63
2022-12-24T09:29:58.920Z,6.70
2022-12-24T09:32:25.284Z,6.37
2022-12-24T09:34:51.621Z,5.90
2022-12-24T09:37:18.052Z,6.00
2022-12-24T09:39:44.414Z,6.00
2022-12-24T09:42:49.942Z,5.90
2022-12-24T09:45:41.703Z,7.10
2022-12-24T09:48:18.184Z,6.80
2022-12-24T09:50:53.134Z,7.27
2022-12-24T09:53:27.034Z,5.27
2022-12-24T09:56:04.034Z,6.23
2022-12-24T09:58:41.908Z,6.03
2022-12-24T10:01:12.570Z,6.63
2022-12-24T10:03:39.288Z,6.67
2022-12-24T10:06:25.005Z,6.63
2022-12-24T10:09:13.904Z,5.90
2022-12-24T10:11:50.269Z,6.13
2022-12-24T10:14:44.252Z,6.70
2022-12-24T10:17:45.431Z,6.57
2022-12-24T10:20:34.705Z,6.87
2022-12-24T10:23:11.906Z,6.00
2022-12-24T10:25:47.826Z,5.10
2022-12-24T10:28:23.745Z,6.60
2022-12-24T10:30:55.222Z,6.73
2022-12-24T10:33:46.827Z,5.97
2022-12-24T10:36:18.645Z,5.70
2022-12-24T10:38:45.955Z,6.27
2022-12-24T10:41:14.487Z,6.57
2022-12-24T10:43:42.948Z,6.80
2022-12-24T10:46:23.086Z,5.80
2022-12-24T10:48:59.480Z,5.60
2022-12-24T10:51:40.549Z,5.57
2022-12-24T10:54:14.290Z,6.00
2022-12-24T10:56:44.585Z,6.23
2022-12-24T10:59:32.025Z,6.53
2022-12-24T11:02:00.185Z,6.47
2022-12-24T11:04:32.396Z,6.63
2022-12-24T11:07:01.861Z,7.43
2022-12-24T11:09:34.570Z,7.40
2022-12-24T11:12:09.362Z,7.23
2022-12-24T11:14:39.932Z,7.47
2022-12-24T11:17:06.727Z,8.03
2022-12-24T11:19:41.242Z,6.87
2022-12-24T11:22:18.882Z,7.43
2022-12-24T11:24:50.019Z,7.33
2022-12-24T11:27:25.517Z,6.57
2022-12-24T11:29:51.891Z,7.03
2022-12-24T11:32:22.755Z,7.07
2022-12-24T11:34:49.682Z,6.37
2022-12-24T11:37:25.149Z,6.57
2022-12-24T11:39:54.460Z,6.60
2022-12-24T11:42:39.075Z,7.73
2022-12-24T11:45:17.305Z,7.00
2022-12-24T11:47:43.737Z,7.37
2022-12-24T11:50:27.247Z,6.83
2022-12-24T11:53:02.705Z,7.13
2022-12-24T11:55:52.804Z,7.47
2022-12-24T11:58:40.425Z,6.53
2022-12-24T12:01:24.596Z,7.00
2022-12-24T12:04:15.553Z,6.73
2022-12-24T12:06:47.785Z,7.67
2022-12-24T12:09:24.516Z,7.07
2022-12-24T12:11:56.797Z,7.63
2022-12-24T12:14:32.026Z,7.43
2022-12-24T12:17:07.565Z,7.10
2022-12-24T12:19:45.313Z,7.97
2022-12-24T12:22:24.320Z,7.30
2022-12-24T12:24:53.403Z,7.90
2022-12-24T12:27:47.771Z,7.80
2022-12-24T12:30:21.013Z,7.73
2022-12-24T12:32:56.894Z,7.60
2022-12-24T12:35:33.831Z,7.80
2022-12-24T12:38:12.145Z,8.00
2022-12-24T12:41:00.207Z,8.47
2022-12-24T12:43:32.611Z,7.13
2022-12-24T12:46:17.166Z,7.63
2022-12-24T12:48:58.600Z,7.67
2022-12-24T12:51:40.893Z,6.70
2022-12-24T12:54:30.644Z,7.33
2022-12-24T12:57:05.836Z,6.30
2022-12-24T12:59:43.231Z,7.10
2022-12-24T13:02:34.506Z,7.00
2022-12-24T13:05:23.584Z,7.27
2022-12-24T13:08:11.529Z,6.47
2022-12-24T13:10:54.010Z,7.17
2022-12-24T13:13:44.564Z,5.87
2022-12-24T13:16:35.733Z,7.87
2022-12-24T13:19:47.190Z,6.80
2022-12-24T13:22:17.463Z,6.70
2022-12-24T13:24:52.878Z,7.63
2022-12-24T13:27:24.827Z,8.53
2022-12-24T13:29:52.256Z,6.73
2022-12-24T13:32:21.428Z,5.90
2022-12-24T13:34:53.360Z,6.23
2022-12-24T13:37:32.164Z,6.40
2022-12-24T13:40:02.798Z,6.57
2022-12-24T13:43:12.243Z,6.93
2022-12-24T13:45:38.729Z,7.37
2022-12-24T13:48:11.311Z,6.00
2022-12-24T13:50:45.297Z,7.73
2022-12-24T13:53:28.229Z,6.40
2022-12-24T13:55:56.223Z,6.07
2022-12-24T13:58:24.778Z,6.77
2022-12-24T14:01:04.951Z,5.87
2022-12-24T14:03:35.914Z,6.67
2022-12-24T14:06:06.730Z,6.47
2022-12-24T14:08:39.440Z,7.00
2022-12-24T14:11:18.103Z,8.13
2022-12-24T14:13:44.433Z,7.20
2022-12-24T14:16:28.475Z,6.93
2022-12-24T14:19:12.158Z,7.67
2022-12-24T14:21:44.024Z,6.60
2022-12-24T14:24:20.578Z,7.20
2022-12-24T14:26:51.314Z,7.30
2022-12-24T14:29:41.476Z,7.40
2022-12-24T14:32:15.359Z,7.57
2022-12-24T14:34:42.394Z,9.40
2022-12-24T14:37:11.559Z,8.40
2022-12-24T14:39:43.948Z,8.80
2022-12-24T14:42:31.877Z,8.50
2022-12-24T14:45:17.187Z,9.00
2022-12-24T14:48:06.359Z,8.50
2022-12-24T14:50:43.571Z,8.50
2022-12-24T14:53:31.452Z,7.73
2022-12-24T14:55:57.909Z,9.27
2022-12-24T14:58:27.727Z,7.30
2022-12-24T15:00:57.860Z,8.30
2022-12-24T15:03:27.519Z,7.50
2022-12-24T15:06:02.575Z,7.90
2022-12-24T15:08:43.848Z,8.93
2022-12-24T15:11:16.636Z,8.70
2022-12-24T15:13:46.845Z,8.10
2022-12-24T15:16:19.194Z,7.27
2022-12-24T15:18:58.606Z,8.77
2022-12-24T15:21:37.674Z,7.23
2022-12-24T15:24:04.522Z,7.30
2022-12-24T15:26:36.457Z,8.03
2022-12-24T15:29:16.381Z,8.10
2022-12-24T15:31:43.435Z,6.83
2022-12-24T15:34:30.007Z,7.23
2022-12-24T15:37:24.401Z,8.13
2022-12-24T15:40:02.141Z,8.07
2022-12-24T15:42:28.761Z,9.20
2022-12-24T15:45:01.610Z,9.10
2022-12-24T15:47:45.593Z,8.33
2022-12-24T15:50:19.315Z,7.80
2022-12-24T15:52:47.143Z,8.10
2022-12-24T15:55:38.376Z,7.67
2022-12-24T15:58:23.518Z,7.67
2022-12-24T16:01:04.728Z,8.70
2022-12-24T16:03:32.414Z,8.20
2022-12-24T16:06:04.710Z,9.90
2022-12-24T16:08:41.510Z,8.03
2022-12-24T16:11:23.554Z,8.37
2022-12-24T16:14:14.062Z,8.37
2022-12-24T16:16:46.239Z,9.33
2022-12-24T16:19:24.972Z,8.60
2022-12-24T16:21:57.626Z,10.93
2022-12-24T16:24:27.281Z,9.10
2022-12-24T16:26:54.840Z,9.43
2022-12-24T16:29:22.346Z,11.20
2022-12-24T16:31:53.224Z,9.10
2022-12-24T16:34:25.405Z,7.87
2022-12-24T16:36:51.956Z,8.20
2022-12-24T16:39:38.584Z,8.90
2022-12-24T16:42:23.437Z,9.10
2022-12-24T16:44:52.993Z,9.27
2022-12-24T16:47:32.387Z,7.80
2022-12-24T16:50:02.990Z,7.97
2022-12-24T16:52:33.448Z,8.87
2022-12-24T16:55:01.007Z,9.73
2022-12-24T16:57:27.953Z,8.27
2022-12-24T16:59:54.587Z,9.00
2022-12-24T17:02:23.477Z,8.47
2022-12-24T17:04:50.244Z,6.67
2022-12-24T17:07:18.955Z,8.03
2022-12-24T17:09:45.356Z,7.20
2022-12-24T17:12:11.932Z,7.30
2022-12-24T17:14:39.411Z,5.97
2022-12-24T17:17:06.106Z,7.07
2022-12-24T17:19:32.504Z,6.37
2022-12-24T17:21:58.904Z,7.50
2022-12-24T17:24:25.254Z,6.47
2022-12-24T17:26:51.660Z,7.70
2022-12-24T17:29:18.026Z,6.47
2022-12-24T17:31:44.535Z,5.73
2022-12-24T17:34:10.970Z,7.10
2022-12-24T17:36:37.342Z,7.07
2022-12-24T17:39:03.840Z,6.50
2022-12-24T17:41:30.261Z,7.87
2022-12-24T17:43:56.628Z,7.73
2022-12-24T17:46:23.648Z,8.07
2022-12-24T17:48:51.244Z,10.07
2022-12-24T17:51:20.783Z,7.63
2022-12-24T17:53:47.666Z,9.33
2022-12-24T17:56:15.422Z,11.00
2022-12-24T17:58:43.517Z,13.53
2022-12-24T18:01:12.746Z,10.10
2022-12-24T18:03:39.481Z,9.20
2022-12-24T18:06:08.177Z,9.23
2022-12-24T18:08:35.229Z,8.40
2022-12-24T18:11:11.832Z,9.03
2022-12-24T18:13:39.000Z,8.53
2022-12-24T18:16:22.223Z,9.20
2022-12-24T18:18:49.408Z,10.33
2022-12-24T18:21:17.532Z,8.87
2022-12-24T18:23:46.467Z,8.57
2022-12-24T18:26:15.288Z,8.37
2022-12-24T18:28:42.755Z,7.83
2022-12-24T18:31:13.364Z,10.27
2022-12-24T18:33:40.782Z,9.30
2022-12-24T18:36:07.845Z,9.30
2022-12-24T18:38:35.246Z,9.50
2022-12-24T18:41:06.416Z,7.90
2022-12-24T18:43:33.148Z,8.80
2022-12-24T18:45:59.649Z,9.03
2022-12-24T18:48:26.083Z,8.33
2022-12-24T18:50:57.513Z,7.63
2022-12-24T18:53:24.883Z,9.20
2022-12-24T18:55:51.824Z,10.13
2022-12-24T18:58:18.336Z,10.07
2022-12-24T19:00:44.876Z,9.17
2022-12-24T19:03:14.666Z,8.50
2022-12-24T19:05:42.652Z,7.80
2022-12-24T19:08:37.700Z,10.40
2022-12-24T19:10:55.721Z,10.87
2022-12-24T19:13:22.067Z,9.80
2022-12-24T19:15:48.491Z,9.73
2022-12-24T19:18:14.861Z,11.17
2022-12-24T19:20:41.283Z,10.40
2022-12-24T19:23:07.876Z,10.00
2022-12-24T19:25:35.349Z,10.23
2022-12-24T19:28:08.416Z,11.10
2022-12-24T19:30:39.337Z,10.60
2022-12-24T19:33:06.236Z,10.60
2022-12-24T19:35:32.945Z,10.97
2022-12-24T19:37:59.891Z,10.73
2022-12-24T19:40:27.447Z,12.73
2022-12-24T19:42:53.936Z,10.63
2022-12-24T19:45:22.282Z,11.17
2022-12-24T19:47:50.289Z,10.13
2022-12-24T19:50:18.190Z,11.60
2022-12-24T19:52:44.770Z,10.77
2022-12-24T19:55:11.981Z,11.47
2022-12-24T19:57:39.676Z,11.47
2022-12-24T20:00:09.136Z,10.47
2022-12-24T20:02:41.653Z,10.37
2022-12-24T20:05:08.247Z,11.47
2022-12-24T20:07:34.707Z,11.00
2022-12-24T20:10:01.145Z,10.37
2022-12-24T20:12:27.608Z,10.20
2022-12-24T20:14:57.459Z,10.00
2022-12-24T20:17:23.957Z,11.87
2022-12-24T20:19:50.627Z,10.97
2022-12-24T20:22:16.983Z,10.93
2022-12-24T20:24:43.402Z,10.93
2022-12-24T20:27:09.903Z,11.50
2022-12-24T20:29:36.373Z,11.53
2022-12-24T20:32:02.807Z,12.53
2022-12-24T20:34:29.214Z,11.13
2022-12-24T20:36:55.577Z,11.13
2022-12-24T20:39:21.973Z,11.60
2022-12-24T20:41:48.418Z,12.73
2022-12-24T20:44:14.875Z,12.53
2022-12-24T20:46:41.235Z,11.77
2022-12-24T20:49:07.610Z,12.33
2022-12-24T20:51:34.111Z,13.60
2022-12-24T20:54:01.871Z,12.77
2022-12-24T20:56:29.047Z,12.27
2022-12-24T20:58:55.436Z,14.37
2022-12-24T21:01:24.999Z,14.13
2022-12-24T21:03:53.200Z,14.63
2022-12-24T21:06:19.711Z,12.83
2022-12-24T21:08:48.917Z,14.03
2022-12-24T21:11:34.042Z,12.53
2022-12-24T21:14:01.958Z,12.60
2022-12-24T21:16:30.474Z,12.60
2022-12-24T21:18:56.948Z,12.53
2022-12-24T21:21:23.404Z,12.67
2022-12-24T21:23:49.800Z,11.77
2022-12-24T21:26:16.215Z,12.17
2022-12-24T21:28:43.762Z,12.57
2022-12-24T21:31:12.225Z,13.00
2022-12-24T21:33:38.935Z,13.30
2022-12-24T21:36:06.098Z,12.40
2022-12-24T21:38:32.717Z,11.87
2022-12-24T21:41:07.771Z,12.63
2022-12-24T21:43:35.958Z,11.97
2022-12-24T21:46:07.887Z,12.47
2022-12-24T21:48:55.891Z,13.70
2022-12-24T21:51:23.628Z,13.27
2022-12-24T21:54:08.699Z,13.30
2022-12-24T21:56:53.636Z,12.53
2022-12-24T21:59:26.191Z,12.80
2022-12-24T22:01:53.285Z,14.03
2022-12-24T22:04:19.971Z,14.63
2022-12-24T22:07:04.921Z,13.57
2022-12-24T22:09:49.660Z,13.90
2022-12-24T22:12:16.180Z,12.87
2022-12-24T22:14:42.535Z,12.00
2022-12-24T22:17:08.910Z,13.17
2022-12-24T22:19:35.329Z,11.80
2022-12-24T22:22:01.709Z,10.97
2022-12-24T22:24:28.568Z,10.97
2022-12-24T22:26:54.946Z,12.27
2022-12-24T22:29:21.350Z,12.43
2022-12-24T22:31:47.794Z,11.80
2022-12-24T22:34:14.516Z,11.50
2022-12-24T22:36:41.128Z,13.90
2022-12-24T22:39:08.493Z,12.80
2022-12-24T22:41:35.019Z,11.30
2022-12-24T22:44:01.645Z,12.47
2022-12-24T22:46:28.108Z,10.33
2022-12-24T22:48:54.475Z,9.63
2022-12-24T22:51:22.317Z,10.03
2022-12-24T22:53:48.995Z,10.07
2022-12-24T22:56:21.103Z,9.97
2022-12-24T22:58:52.748Z,10.40
2022-12-24T23:01:19.482Z,11.27
2022-12-24T23:03:45.973Z,9.83
2022-12-24T23:06:12.383Z,9.93
2022-12-24T23:08:38.738Z,10.20
2022-12-24T23:11:11.632Z,8.80
2022-12-24T23:13:58.608Z,9.13
2022-12-24T23:16:27.081Z,10.00
2022-12-24T23:18:53.832Z,9.97
2022-12-24T23:21:20.364Z,10.80
2022-12-24T23:23:46.897Z,10.47
2022-12-24T23:26:16.967Z,9.43
2022-12-24T23:28:44.196Z,10.73
2022-12-24T23:31:11.641Z,9.73
2022-12-24T23:33:38.457Z,8.90
2022-12-24T23:36:05.199Z,9.67
2022-12-24T23:38:32.142Z,8.40
2022-12-24T23:41:00.471Z,10.03
2022-12-24T23:43:27.251Z,9.90
2022-12-24T23:45:54.282Z,9.43
2022-12-24T23:48:21.485Z,9.33
2022-12-24T23:50:49.264Z,10.43
2022-12-24T23:53:17.044Z,9.80
2022-12-24T23:55:43.486Z,10.70
2022-12-24T23:58:13.681Z,10.63
